97PN weather

Gold Mine Field
Sellersville, Pennsylvania, United States

Public forecast

Using degrees Fahrenheit for public forecast. Weather courtesy of forecast.io.

METAR (pilot weather report)

Closest report is Pennridge Airport, 2.8 nm (5.2 km) ENE. Retrieved 2019/07/17 03:35 UTC (20 minutes ago):

KCKZ 170335Z AUTO 00000KT 10SM SCT035 BKN048 OVC090 21/21 A3006 RMK AO2

TAF (pilot weather forecast)

Forecast is more than 12 hours old.

Closest forecast is Lehigh Valley International Airport, 17.1 nm (31.8 km) NNW. Retrieved 2019/07/16 00:22 UTC (1 day ago):

TAF KABE 162320Z 1700/1724 22006KT P6SM VCSH BKN150 FM170300 VRB04KT P6SM BKN150 FM171500 24007KT P6SM SCT060 BKN200 FM172200 23007KT P6SM VCTS BKN050CB